KONT

Ontario International Airport

Ontario, California, USA
METAR KONT 220153Z 28011KT 10SM SCT025 BKN043 17/11 A2985 RMK AO2 SLP103 T01670106
Observed Flight Rules
May-22 @ 01:53 UTC (41 minutes ago) Visual Flight Rules
Wind Visibility Clouds
280° at 11 knots 10 miles
  • Scattered at 2,500' AGL
  • Broken at 4,300' AGL
Temperatures Readings
Current 17°C / 63°F
Dewpoint 11°C / 52°F
Humidity 68%
Altimeter 29.85" Hg
Pressure 1010.3 hPa
Elevation 274
METAR KONT 220153Z 28011KT 10SM SCT025 BKN043 17/11 A2985 RMK AO2 SLP103 T01670106
Observed Flight Rules
May-22 @ 01:53 UTC
(41 minutes ago)
VFR
Wind Visibility
280° at 11 knots 10 miles
Clouds
  • Scattered at 2,500' AGL
  • Broken at 4,300' AGL
Temperature Dewpoint
17°C / 63°F 11°C / 52°F
Humidity Altimeter Pressure
68% 29.85" Hg 1010.3 hPa